Погода Нижнекольцовна неделю

Ростовская область, Россия

20 - 26 мая
  • 20мая
    Сегодня
    +9°
    +23°
    Небольшая облачность
    ВремяПогодаТемператураВлажностьДавлениеВетер, м/сВероятность осадков
    00:00Ясно и безоблачно+10°C89 %751 мм2.1 м/с2 %
    03:00Ясно и безоблачно+10°C83 %752 мм0.5 м/с2 %
    06:00Ясно и безоблачно+10°C85 %753 мм0.8 м/с2 %
    09:00Практически безоблачно+19°C50 %753 мм2.0 м/с2 %
    12:00Практически безоблачно+21°C39 %753 мм2.2 м/с4 %
    15:00Небольшая облачность+23°C34 %753 мм1.6 м/с3 %
    18:00Практически безоблачно+22°C34 %752 мм2.1 м/с2 %
    21:00Практически безоблачно+15°C64 %753 мм2.4 м/с2 %
  • 21мая
    Вторник
    +9°
    +25°
    Практически безоблачно
    ВремяПогодаТемператураВлажностьДавлениеВетер, м/сВероятность осадков
    00:00Ясно и безоблачно+12°C70 %754 мм2.0 м/с2 %
    03:00Ясно и безоблачно+11°C76 %754 мм2.6 м/с2 %
    06:00Практически безоблачно+12°C72 %754 мм1.9 м/с2 %
    09:00Ясно и безоблачно+22°C40 %755 мм1.0 м/с2 %
    12:00Облачно с прояснениями+24°C30 %755 мм1.1 м/с2 %
    15:00Практически безоблачно+25°C27 %755 мм1.4 м/с2 %
    18:00Ясно и безоблачно+24°C27 %754 мм3.3 м/с2 %
    21:00Ясно и безоблачно+17°C46 %754 мм2.4 м/с2 %
  • 22мая
    Среда
    +10°
    +28°
    Практически безоблачно
    ВремяПогодаТемператураВлажностьДавлениеВетер, м/сВероятность осадков
    00:00Небольшая облачность+12°C63 %754 мм2.3 м/с2 %
    03:00Ясно и безоблачно+10°C64 %754 мм1.7 м/с2 %
    06:00Ясно и безоблачно+13°C55 %754 мм1.7 м/с2 %
    09:00Ясно и безоблачно+24°C30 %754 мм1.1 м/с2 %
    12:00Облачно с прояснениями+26°C24 %754 мм2.8 м/с2 %
    15:00Практически безоблачно+27°C22 %753 мм2.6 м/с2 %
    18:00Ясно и безоблачно+24°C24 %752 мм5.3 м/с2 %
    21:00Ясно и безоблачно+17°C39 %752 мм2.6 м/с2 %
  • 23мая
    Четверг
    +11°
    +28°
    Ясно и безоблачно
    ВремяПогодаТемператураВлажностьДавлениеВетер, м/сВероятность осадков
    00:00Ясно и безоблачно+16°C38 %752 мм1.8 м/с2 %
    03:00Ясно и безоблачно+11°C54 %752 мм2.1 м/с2 %
    06:00Ясно и безоблачно+13°C54 %752 мм1.4 м/с2 %
    09:00Ясно и безоблачно+24°C33 %753 мм1.2 м/с2 %
    12:00Ясно и безоблачно+27°C24 %753 мм3.2 м/с3 %
    15:00Ясно и безоблачно+27°C25 %752 мм2.8 м/с16 %
    18:00Небольшая облачность+24°C34 %752 мм6.1 м/с17 %
    21:00Ясно и безоблачно+19°C46 %753 мм5.4 м/с2 %
  • 24мая
    Пятница
    +9°
    +23°
    Ясно и безоблачно
    ВремяПогодаТемператураВлажностьДавлениеВетер, м/сВероятность осадков
    00:00Ясно и безоблачно+16°C61 %754 мм5.3 м/с2 %
    03:00Ясно и безоблачно+14°C70 %755 мм6.0 м/с2 %
    06:00Ясно и безоблачно+12°C46 %756 мм6.6 м/с2 %
    09:00Ясно и безоблачно+18°C36 %757 мм6.8 м/с2 %
    12:00Ясно и безоблачно+21°C32 %758 мм7.1 м/с4 %
    15:00Ясно и безоблачно+22°C25 %757 мм7.0 м/с6 %
    18:00Ясно и безоблачно+21°C20 %757 мм7.1 м/с8 %
    21:00Ясно и безоблачно+16°C25 %759 мм5.8 м/с2 %
Мы используем cookies
Соглашаюсь